Du har inga inställningar för hoppväder.nu

Hoppväder.nu

Senast uppdaterat 06:22

UTC-tid

2020-01-29 kl. 05:22


Sol och måne

Solen går upp 8:26 och går ner 15:40 (beräknade cirkatider)
Nästa fullmåne blir om 11 dagar (2020-02-09)

METAR

ESNN (Sundsvall)
(32 minuter sedan)
ESNN 290450Z 06008KT 010V120 1100 R16/P2000N R34/P2000N -SN VV012 M00/M00 Q0994=



ESNK (Kramfors)
(32 minuter sedan)
ESNK 290450Z AUTO 36007KT 330V040 6000 -SN OVC015/// M01/M02 Q0996=



ESNO (Örnsköldsvik)
(32 minuter sedan)
ESNO 290450Z 04009KT 010V070 9999 SG OVC005 M04/M04 Q0997 RESG=



ESNY (Söderhamn)
ESNY NIL=



ESNZ (Östersund)
(32 minuter sedan)
ESNZ 290450Z 04008KT 020V080 3600 -SN FEW008 BKN014 M04/M05 Q0992=



TAF

ESNN (Sundsvall)
(52 minuter sedan)
ESNN 290430Z 2905/2912 08015KT 5000 -SN VV015 TEMPO 2905/2912 2000 RASN BKN005=



ESNK (Kramfors)
ESNK



ESNO (Örnsköldsvik)
(52 minuter sedan)
ESNO 290430Z 2905/2907 04010KT 9999 -SN OVC006 PROB40 2905/2907 2000 SG OVC003=



ESNY (Söderhamn)
ESNY



ESNZ (Östersund)
(82 minuter sedan)
ESNZ 290400Z 2905/2912 05012KT 5000 -SN BKN015 TEMPO 2905/2912 1200 SN VV004=





Kodnycklar till TAF och METAR






LHP

(Sundsvall är område D1a i Sydöstra delen)







Spotting

Hur fungerar spotthjälpen och Vindkartan?

Markvind är ca 0 m/s.
Vind på 600 m ca 0 m/s.
Vind på 1500 m ca 0 m/s.
Vind på 3000 m ca 0 m/s.
Feppen flyger ca 36 m/s över marken på finalen.
Du driver ca 0 m bakåt i frifall. (0 m)
Lämplig spot är 8 sekunder eller 288 m innan gropen.
(-8s eller -288 m)
För små grupper eller ensamhoppare bör man vänta 4-6 sekunder mellan grupperna.
För större grupper bör man vänta 8-10 sekunder mellan grupperna.


Vindkartan

Senast uppdaterad 06:22




All data kommer från LFV.se